CNP3 weather

Arnprior Airport
Arnprior, Ontario, Canada

Public forecast

Using degrees Celsius for public forecast. Weather courtesy of forecast.io.

METAR (pilot weather report)

Closest report is Ottawa Macdonald-Cartier International Airport, 29.9 nm (55.4 km) E. Retrieved 2019/05/20 16:00 UTC (42 minutes ago):

CYOW 201600Z 22013G20KT 15SM FEW030 BKN086 BKN180 20/14 A2961 RMK CU1AC5AC1 SLP030 DENSITY ALT 1400FT

TAF (pilot weather forecast)

Closest forecast is Ottawa Macdonald-Cartier International Airport, 29.9 nm (55.4 km) E. Retrieved 2019/05/20 15:42 UTC (60 minutes ago):

TAF TAF CYOW 201438Z 2015/2112 23012G22KT P6SM FEW025 BKN050 TEMPO 2017/2020 P6SM -SHRA BECMG 2017/2019 24020G30KT FM210000 28015G25KT P6SM OVC040 TEMPO 2101/2104 6SM -SHRA BR BKN020 OVC040 FM210400 30012G22KT P6SM SCT015 BKN030 BECMG 2105/2107 29012KT BECMG 2110/2112 29018G28KT RMK NXT FCST BY 201800Z